sensor_id;sensor_type;location;lat;lon;timestamp;temperature;humidity
22540;DHT22;11436;50.860;4.334;2022-11-14T00:00:36;9.20;99.90
22540;DHT22;11436;50.860;4.334;2022-11-14T00:03:04;9.20;99.90
22540;DHT22;11436;50.860;4.334;2022-11-14T00:05:30;9.20;99.90
22540;DHT22;11436;50.860;4.334;2022-11-14T00:07:56;9.20;99.90
22540;DHT22;11436;50.860;4.334;2022-11-14T00:10:22;9.30;99.90
22540;DHT22;11436;50.860;4.334;2022-11-14T00:12:47;9.20;99.90
22540;DHT22;11436;50.860;4.334;2022-11-14T00:15:14;9.30;99.90
22540;DHT22;11436;50.860;4.334;2022-11-14T00:17:40;9.30;99.90
22540;DHT22;11436;50.860;4.334;2022-11-14T00:20:07;9.50;99.90
22540;DHT22;11436;50.860;4.334;2022-11-14T00:22:33;9.40;99.90
22540;DHT22;11436;50.860;4.334;2022-11-14T00:24:59;9.40;99.90
22540;DHT22;11436;50.860;4.334;2022-11-14T00:27:25;9.50;99.90
22540;DHT22;11436;50.860;4.334;2022-11-14T00:29:51;9.40;99.90
22540;DHT22;11436;50.860;4.334;2022-11-14T00:32:17;9.40;99.90
22540;DHT22;11436;50.860;4.334;2022-11-14T00:34:43;9.20;99.90
22540;DHT22;11436;50.860;4.334;2022-11-14T00:37:08;9.10;99.90
22540;DHT22;11436;50.860;4.334;2022-11-14T00:39:34;9.10;99.90
22540;DHT22;11436;50.860;4.334;2022-11-14T00:42:00;9.00;99.90
22540;DHT22;11436;50.860;4.334;2022-11-14T00:44:26;9.00;99.90
22540;DHT22;11436;50.860;4.334;2022-11-14T00:46:51;9.00;99.90
22540;DHT22;11436;50.860;4.334;2022-11-14T00:49:17;9.00;99.90
22540;DHT22;11436;50.860;4.334;2022-11-14T00:51:43;9.00;99.90
22540;DHT22;11436;50.860;4.334;2022-11-14T00:54:09;9.10;99.90
22540;DHT22;11436;50.860;4.334;2022-11-14T00:56:35;9.10;99.90
22540;DHT22;11436;50.860;4.334;2022-11-14T00:59:00;8.90;99.90
22540;DHT22;11436;50.860;4.334;2022-11-14T01:01:26;9.00;99.90
22540;DHT22;11436;50.860;4.334;2022-11-14T01:03:52;9.10;99.90
22540;DHT22;11436;50.860;4.334;2022-11-14T01:06:18;9.10;99.90
22540;DHT22;11436;50.860;4.334;2022-11-14T01:08:44;9.10;99.90
22540;DHT22;11436;50.860;4.334;2022-11-14T01:11:17;9.10;99.90
22540;DHT22;11436;50.860;4.334;2022-11-14T01:13:43;9.20;99.90
22540;DHT22;11436;50.860;4.334;2022-11-14T01:16:09;9.10;99.90
22540;DHT22;11436;50.860;4.334;2022-11-14T01:18:36;9.10;99.90
22540;DHT22;11436;50.860;4.334;2022-11-14T01:21:07;9.00;99.90
22540;DHT22;11436;50.860;4.334;2022-11-14T01:23:33;8.90;99.90
22540;DHT22;11436;50.860;4.334;2022-11-14T01:26:04;8.80;99.90
22540;DHT22;11436;50.860;4.334;2022-11-14T01:28:30;8.80;99.90
22540;DHT22;11436;50.860;4.334;2022-11-14T01:30:56;8.70;99.90
22540;DHT22;11436;50.860;4.334;2022-11-14T01:33:31;8.70;99.90
22540;DHT22;11436;50.860;4.334;2022-11-14T01:35:58;8.70;99.90
22540;DHT22;11436;50.860;4.334;2022-11-14T01:38:24;8.60;99.90
22540;DHT22;11436;50.860;4.334;2022-11-14T01:40:50;8.60;99.90
22540;DHT22;11436;50.860;4.334;2022-11-14T01:51:26;8.40;99.90
22540;DHT22;11436;50.860;4.334;2022-11-14T01:54:03;8.50;99.90
22540;DHT22;11436;50.860;4.334;2022-11-14T01:56:39;8.40;99.90
22540;DHT22;11436;50.860;4.334;2022-11-14T01:59:09;8.40;99.90
22540;DHT22;11436;50.860;4.334;2022-11-14T02:01:40;8.40;99.90
22540;DHT22;11436;50.860;4.334;2022-11-14T02:04:06;8.40;99.90
22540;DHT22;11436;50.860;4.334;2022-11-14T02:06:32;8.40;99.90
22540;DHT22;11436;50.860;4.334;2022-11-14T02:09:04;8.50;99.90
22540;DHT22;11436;50.860;4.334;2022-11-14T02:11:33;8.50;99.90
22540;DHT22;11436;50.860;4.334;2022-11-14T02:14:00;8.50;99.90
22540;DHT22;11436;50.860;4.334;2022-11-14T02:16:26;8.40;99.90
22540;DHT22;11436;50.860;4.334;2022-11-14T02:18:52;8.40;99.90
22540;DHT22;11436;50.860;4.334;2022-11-14T02:21:18;8.40;99.90
22540;DHT22;11436;50.860;4.334;2022-11-14T02:23:43;8.30;99.90
22540;DHT22;11436;50.860;4.334;2022-11-14T02:26:09;8.30;99.90
22540;DHT22;11436;50.860;4.334;2022-11-14T02:28:35;8.20;99.90
22540;DHT22;11436;50.860;4.334;2022-11-14T02:31:01;8.20;99.90
22540;DHT22;11436;50.860;4.334;2022-11-14T02:33:27;8.10;99.90
22540;DHT22;11436;50.860;4.334;2022-11-14T02:35:53;8.10;99.90
22540;DHT22;11436;50.860;4.334;2022-11-14T02:38:18;8.10;99.90
22540;DHT22;11436;50.860;4.334;2022-11-14T02:40:44;8.10;99.90
22540;DHT22;11436;50.860;4.334;2022-11-14T02:43:10;8.20;99.90
22540;DHT22;11436;50.860;4.334;2022-11-14T02:45:36;8.10;99.90
22540;DHT22;11436;50.860;4.334;2022-11-14T02:48:01;8.10;99.90
22540;DHT22;11436;50.860;4.334;2022-11-14T02:50:28;8.10;99.90
22540;DHT22;11436;50.860;4.334;2022-11-14T02:52:54;8.00;99.90
22540;DHT22;11436;50.860;4.334;2022-11-14T02:55:20;7.90;99.90
22540;DHT22;11436;50.860;4.334;2022-11-14T02:57:46;7.90;99.90
22540;DHT22;11436;50.860;4.334;2022-11-14T03:00:12;7.90;99.90
22540;DHT22;11436;50.860;4.334;2022-11-14T03:02:38;7.80;99.90
22540;DHT22;11436;50.860;4.334;2022-11-14T03:05:04;7.70;99.90
22540;DHT22;11436;50.860;4.334;2022-11-14T03:07:30;7.60;99.90
22540;DHT22;11436;50.860;4.334;2022-11-14T03:09:55;7.50;99.90
22540;DHT22;11436;50.860;4.334;2022-11-14T03:12:21;7.50;99.90
22540;DHT22;11436;50.860;4.334;2022-11-14T03:14:47;7.50;99.90
22540;DHT22;11436;50.860;4.334;2022-11-14T03:17:13;7.50;99.90
22540;DHT22;11436;50.860;4.334;2022-11-14T03:19:38;7.50;99.90
22540;DHT22;11436;50.860;4.334;2022-11-14T03:22:04;7.60;99.90
22540;DHT22;11436;50.860;4.334;2022-11-14T03:24:30;7.60;99.90
22540;DHT22;11436;50.860;4.334;2022-11-14T03:26:56;7.60;99.90
22540;DHT22;11436;50.860;4.334;2022-11-14T03:29:22;7.60;99.90
22540;DHT22;11436;50.860;4.334;2022-11-14T03:31:47;7.50;99.90
22540;DHT22;11436;50.860;4.334;2022-11-14T03:34:13;7.50;99.90
22540;DHT22;11436;50.860;4.334;2022-11-14T03:36:39;7.50;99.90
22540;DHT22;11436;50.860;4.334;2022-11-14T03:39:05;7.50;99.90
22540;DHT22;11436;50.860;4.334;2022-11-14T03:41:31;7.50;99.90
22540;DHT22;11436;50.860;4.334;2022-11-14T03:43:57;7.50;99.90
22540;DHT22;11436;50.860;4.334;2022-11-14T03:46:23;7.50;99.90
22540;DHT22;11436;50.860;4.334;2022-11-14T03:48:48;7.50;99.90
22540;DHT22;11436;50.860;4.334;2022-11-14T03:51:14;7.50;99.90
22540;DHT22;11436;50.860;4.334;2022-11-14T03:53:40;7.50;99.90
22540;DHT22;11436;50.860;4.334;2022-11-14T03:56:06;7.50;99.90
22540;DHT22;11436;50.860;4.334;2022-11-14T03:58:31;7.40;99.90
22540;DHT22;11436;50.860;4.334;2022-11-14T04:00:57;7.40;99.90
22540;DHT22;11436;50.860;4.334;2022-11-14T04:03:23;7.30;99.90
22540;DHT22;11436;50.860;4.334;2022-11-14T04:05:49;7.20;99.90
22540;DHT22;11436;50.860;4.334;2022-11-14T04:08:15;7.20;99.90
22540;DHT22;11436;50.860;4.334;2022-11-14T04:10:41;7.20;99.90
22540;DHT22;11436;50.860;4.334;2022-11-14T04:13:07;7.10;99.90
22540;DHT22;11436;50.860;4.334;2022-11-14T04:15:33;7.10;99.90
22540;DHT22;11436;50.860;4.334;2022-11-14T04:17:59;7.00;99.90
22540;DHT22;11436;50.860;4.334;2022-11-14T04:20:25;7.00;99.90
22540;DHT22;11436;50.860;4.334;2022-11-14T04:22:51;7.00;99.90
22540;DHT22;11436;50.860;4.334;2022-11-14T04:25:16;7.00;99.90
22540;DHT22;11436;50.860;4.334;2022-11-14T04:27:42;7.00;99.90
22540;DHT22;11436;50.860;4.334;2022-11-14T04:30:08;7.00;99.90
22540;DHT22;11436;50.860;4.334;2022-11-14T04:32:34;7.00;99.90
22540;DHT22;11436;50.860;4.334;2022-11-14T04:35:00;7.00;99.90
22540;DHT22;11436;50.860;4.334;2022-11-14T04:37:26;7.00;99.90
22540;DHT22;11436;50.860;4.334;2022-11-14T04:39:52;7.00;99.90
22540;DHT22;11436;50.860;4.334;2022-11-14T04:42:18;7.10;99.90
22540;DHT22;11436;50.860;4.334;2022-11-14T04:44:43;7.10;99.90
22540;DHT22;11436;50.860;4.334;2022-11-14T04:47:09;7.00;99.90
22540;DHT22;11436;50.860;4.334;2022-11-14T04:49:35;7.10;99.90
22540;DHT22;11436;50.860;4.334;2022-11-14T04:52:01;7.00;99.90
22540;DHT22;11436;50.860;4.334;2022-11-14T04:54:27;7.10;99.90
22540;DHT22;11436;50.860;4.334;2022-11-14T04:56:52;7.00;99.90
22540;DHT22;11436;50.860;4.334;2022-11-14T04:59:18;7.00;99.90
22540;DHT22;11436;50.860;4.334;2022-11-14T05:01:44;7.00;99.90
22540;DHT22;11436;50.860;4.334;2022-11-14T05:04:09;7.00;99.90
22540;DHT22;11436;50.860;4.334;2022-11-14T05:06:35;7.00;99.90
22540;DHT22;11436;50.860;4.334;2022-11-14T05:09:01;7.00;99.90
22540;DHT22;11436;50.860;4.334;2022-11-14T05:11:27;6.90;99.90
22540;DHT22;11436;50.860;4.334;2022-11-14T05:13:53;6.90;99.90
22540;DHT22;11436;50.860;4.334;2022-11-14T05:16:19;6.90;99.90
22540;DHT22;11436;50.860;4.334;2022-11-14T05:18:45;6.90;99.90
22540;DHT22;11436;50.860;4.334;2022-11-14T05:21:14;6.90;99.90
22540;DHT22;11436;50.860;4.334;2022-11-14T05:23:40;7.00;99.90
22540;DHT22;11436;50.860;4.334;2022-11-14T05:26:11;6.90;99.90
22540;DHT22;11436;50.860;4.334;2022-11-14T05:28:37;6.90;99.90
22540;DHT22;11436;50.860;4.334;2022-11-14T05:31:05;6.90;99.90
22540;DHT22;11436;50.860;4.334;2022-11-14T05:33:31;6.90;99.90
22540;DHT22;11436;50.860;4.334;2022-11-14T05:36:09;6.90;99.90
22540;DHT22;11436;50.860;4.334;2022-11-14T05:38:35;7.00;99.90
22540;DHT22;11436;50.860;4.334;2022-11-14T05:41:09;6.90;99.90
22540;DHT22;11436;50.860;4.334;2022-11-14T05:43:36;6.80;99.90
22540;DHT22;11436;50.860;4.334;2022-11-14T05:46:04;6.80;99.90
22540;DHT22;11436;50.860;4.334;2022-11-14T05:48:30;6.70;99.90
22540;DHT22;11436;50.860;4.334;2022-11-14T05:50:58;6.70;99.90
22540;DHT22;11436;50.860;4.334;2022-11-14T05:53:25;6.60;99.90
22540;DHT22;11436;50.860;4.334;2022-11-14T05:55:51;6.60;99.90
22540;DHT22;11436;50.860;4.334;2022-11-14T05:58:17;6.60;99.90
22540;DHT22;11436;50.860;4.334;2022-11-14T06:00:42;6.50;99.90
22540;DHT22;11436;50.860;4.334;2022-11-14T06:03:08;6.60;99.90
22540;DHT22;11436;50.860;4.334;2022-11-14T06:05:35;6.50;99.90
22540;DHT22;11436;50.860;4.334;2022-11-14T06:08:01;6.60;99.90
22540;DHT22;11436;50.860;4.334;2022-11-14T06:10:27;6.60;99.90
22540;DHT22;11436;50.860;4.334;2022-11-14T06:12:53;6.60;99.90
22540;DHT22;11436;50.860;4.334;2022-11-14T06:15:19;6.70;99.90
22540;DHT22;11436;50.860;4.334;2022-11-14T06:17:45;6.70;99.90
22540;DHT22;11436;50.860;4.334;2022-11-14T06:20:11;6.60;99.90
22540;DHT22;11436;50.860;4.334;2022-11-14T06:22:41;6.60;99.90
22540;DHT22;11436;50.860;4.334;2022-11-14T06:25:07;6.70;99.90
22540;DHT22;11436;50.860;4.334;2022-11-14T06:27:33;6.60;99.90
22540;DHT22;11436;50.860;4.334;2022-11-14T06:29:59;6.50;99.90
22540;DHT22;11436;50.860;4.334;2022-11-14T06:32:24;6.50;99.90
22540;DHT22;11436;50.860;4.334;2022-11-14T06:34:50;6.50;99.90
22540;DHT22;11436;50.860;4.334;2022-11-14T06:37:16;6.40;99.90
22540;DHT22;11436;50.860;4.334;2022-11-14T06:39:42;6.50;99.90
22540;DHT22;11436;50.860;4.334;2022-11-14T06:42:07;6.50;99.90
22540;DHT22;11436;50.860;4.334;2022-11-14T06:44:33;6.50;99.90
22540;DHT22;11436;50.860;4.334;2022-11-14T06:46:59;6.60;99.90
22540;DHT22;11436;50.860;4.334;2022-11-14T06:49:25;6.60;99.90
22540;DHT22;11436;50.860;4.334;2022-11-14T06:51:52;6.60;99.90
22540;DHT22;11436;50.860;4.334;2022-11-14T06:54:18;6.60;99.90
22540;DHT22;11436;50.860;4.334;2022-11-14T06:56:44;6.70;99.90
22540;DHT22;11436;50.860;4.334;2022-11-14T06:59:10;6.70;99.90
22540;DHT22;11436;50.860;4.334;2022-11-14T07:01:36;6.70;99.90
22540;DHT22;11436;50.860;4.334;2022-11-14T07:04:02;6.60;99.90
22540;DHT22;11436;50.860;4.334;2022-11-14T07:06:29;6.70;99.90
22540;DHT22;11436;50.860;4.334;2022-11-14T07:08:56;6.80;99.90
22540;DHT22;11436;50.860;4.334;2022-11-14T07:11:24;6.80;99.90
22540;DHT22;11436;50.860;4.334;2022-11-14T07:13:58;6.80;99.90
22540;DHT22;11436;50.860;4.334;2022-11-14T07:16:29;6.70;99.90
22540;DHT22;11436;50.860;4.334;2022-11-14T07:18:59;6.60;99.90
22540;DHT22;11436;50.860;4.334;2022-11-14T07:21:27;6.60;99.90
22540;DHT22;11436;50.860;4.334;2022-11-14T07:23:53;6.60;99.90
22540;DHT22;11436;50.860;4.334;2022-11-14T07:26:19;6.60;99.90
22540;DHT22;11436;50.860;4.334;2022-11-14T07:28:46;6.60;99.90
22540;DHT22;11436;50.860;4.334;2022-11-14T07:31:15;6.60;99.90
22540;DHT22;11436;50.860;4.334;2022-11-14T07:33:41;6.80;99.90
22540;DHT22;11436;50.860;4.334;2022-11-14T07:36:09;6.80;99.90
22540;DHT22;11436;50.860;4.334;2022-11-14T07:38:36;6.90;99.90
22540;DHT22;11436;50.860;4.334;2022-11-14T07:41:08;6.90;99.90
22540;DHT22;11436;50.860;4.334;2022-11-14T07:43:34;7.10;99.90
22540;DHT22;11436;50.860;4.334;2022-11-14T07:46:03;7.10;99.90
22540;DHT22;11436;50.860;4.334;2022-11-14T07:48:29;7.10;99.90
22540;DHT22;11436;50.860;4.334;2022-11-14T07:50:59;7.10;99.90
22540;DHT22;11436;50.860;4.334;2022-11-14T07:53:26;7.10;99.90
22540;DHT22;11436;50.860;4.334;2022-11-14T07:55:51;7.10;99.90
22540;DHT22;11436;50.860;4.334;2022-11-14T07:58:17;7.20;99.90
22540;DHT22;11436;50.860;4.334;2022-11-14T08:00:43;7.30;99.90
22540;DHT22;11436;50.860;4.334;2022-11-14T08:03:09;7.20;99.90
22540;DHT22;11436;50.860;4.334;2022-11-14T08:05:35;7.40;99.90
22540;DHT22;11436;50.860;4.334;2022-11-14T08:08:02;7.40;99.90
22540;DHT22;11436;50.860;4.334;2022-11-14T08:10:28;7.60;99.90
22540;DHT22;11436;50.860;4.334;2022-11-14T08:13:02;7.50;99.90
22540;DHT22;11436;50.860;4.334;2022-11-14T08:15:28;7.50;99.90
22540;DHT22;11436;50.860;4.334;2022-11-14T08:17:58;7.50;99.90
22540;DHT22;11436;50.860;4.334;2022-11-14T08:20:26;7.60;99.90
22540;DHT22;11436;50.860;4.334;2022-11-14T08:23:12;7.80;99.90
22540;DHT22;11436;50.860;4.334;2022-11-14T08:25:38;7.60;99.90
22540;DHT22;11436;50.860;4.334;2022-11-14T08:28:04;7.60;99.90
22540;DHT22;11436;50.860;4.334;2022-11-14T08:30:31;7.60;99.90
22540;DHT22;11436;50.860;4.334;2022-11-14T08:32:58;7.80;99.90
22540;DHT22;11436;50.860;4.334;2022-11-14T08:35:25;7.80;99.90
22540;DHT22;11436;50.860;4.334;2022-11-14T08:37:51;7.80;99.90
22540;DHT22;11436;50.860;4.334;2022-11-14T08:40:16;7.80;99.90
22540;DHT22;11436;50.860;4.334;2022-11-14T08:42:42;7.80;99.90
22540;DHT22;11436;50.860;4.334;2022-11-14T08:45:08;7.70;99.90
22540;DHT22;11436;50.860;4.334;2022-11-14T08:47:34;7.60;99.90
22540;DHT22;11436;50.860;4.334;2022-11-14T08:50:00;7.60;99.90
22540;DHT22;11436;50.860;4.334;2022-11-14T08:52:25;7.80;99.90
22540;DHT22;11436;50.860;4.334;2022-11-14T08:54:51;8.00;99.90
22540;DHT22;11436;50.860;4.334;2022-11-14T08:57:17;8.10;99.90
22540;DHT22;11436;50.860;4.334;2022-11-14T08:59:43;8.20;99.90
22540;DHT22;11436;50.860;4.334;2022-11-14T09:02:10;8.00;99.90
22540;DHT22;11436;50.860;4.334;2022-11-14T09:04:36;8.10;99.90
22540;DHT22;11436;50.860;4.334;2022-11-14T09:07:02;8.20;99.90
22540;DHT22;11436;50.860;4.334;2022-11-14T09:09:28;8.30;99.90
22540;DHT22;11436;50.860;4.334;2022-11-14T09:11:54;8.40;99.90
22540;DHT22;11436;50.860;4.334;2022-11-14T09:14:20;8.40;99.90
22540;DHT22;11436;50.860;4.334;2022-11-14T09:16:48;8.50;99.90
22540;DHT22;11436;50.860;4.334;2022-11-14T09:19:14;8.30;99.90
22540;DHT22;11436;50.860;4.334;2022-11-14T09:21:40;8.10;99.90
22540;DHT22;11436;50.860;4.334;2022-11-14T09:24:06;8.20;99.90
22540;DHT22;11436;50.860;4.334;2022-11-14T09:26:32;8.00;99.90
22540;DHT22;11436;50.860;4.334;2022-11-14T09:28:58;8.00;99.90
22540;DHT22;11436;50.860;4.334;2022-11-14T09:31:30;8.00;99.90
22540;DHT22;11436;50.860;4.334;2022-11-14T09:33:55;8.10;99.90
22540;DHT22;11436;50.860;4.334;2022-11-14T09:36:21;8.10;99.90
22540;DHT22;11436;50.860;4.334;2022-11-14T09:38:50;8.10;99.90
22540;DHT22;11436;50.860;4.334;2022-11-14T09:41:23;8.10;99.90
22540;DHT22;11436;50.860;4.334;2022-11-14T09:46:42;8.30;99.90
22540;DHT22;11436;50.860;4.334;2022-11-14T09:52:14;8.20;99.90
22540;DHT22;11436;50.860;4.334;2022-11-14T09:54:56;8.30;99.90
22540;DHT22;11436;50.860;4.334;2022-11-14T09:57:24;8.50;99.90
22540;DHT22;11436;50.860;4.334;2022-11-14T09:59:49;8.50;99.90
22540;DHT22;11436;50.860;4.334;2022-11-14T10:12:41;8.80;99.90
22540;DHT22;11436;50.860;4.334;2022-11-14T10:15:28;9.00;99.90
22540;DHT22;11436;50.860;4.334;2022-11-14T10:18:15;9.10;99.90
22540;DHT22;11436;50.860;4.334;2022-11-14T10:20:53;9.30;99.90
22540;DHT22;11436;50.860;4.334;2022-11-14T10:26:24;9.60;99.90
22540;DHT22;11436;50.860;4.334;2022-11-14T10:31:47;9.40;99.90
22540;DHT22;11436;50.860;4.334;2022-11-14T10:34:32;9.40;99.90
22540;DHT22;11436;50.860;4.334;2022-11-14T10:37:17;9.40;99.90
22540;DHT22;11436;50.860;4.334;2022-11-14T10:39:52;9.40;99.90
22540;DHT22;11436;50.860;4.334;2022-11-14T10:42:37;9.30;99.90
22540;DHT22;11436;50.860;4.334;2022-11-14T10:45:28;9.30;99.90
22540;DHT22;11436;50.860;4.334;2022-11-14T10:48:00;9.40;99.90
22540;DHT22;11436;50.860;4.334;2022-11-14T10:50:41;9.40;99.90
22540;DHT22;11436;50.860;4.334;2022-11-14T10:56:01;9.20;99.90
22540;DHT22;11436;50.860;4.334;2022-11-14T10:58:26;9.10;99.90
22540;DHT22;11436;50.860;4.334;2022-11-14T11:00:52;9.10;99.90
22540;DHT22;11436;50.860;4.334;2022-11-14T11:03:18;9.20;99.90
22540;DHT22;11436;50.860;4.334;2022-11-14T11:05:53;9.20;99.90
22540;DHT22;11436;50.860;4.334;2022-11-14T11:08:22;9.20;99.90
22540;DHT22;11436;50.860;4.334;2022-11-14T11:11:13;9.30;99.90
22540;DHT22;11436;50.860;4.334;2022-11-14T11:13:58;9.20;99.90
22540;DHT22;11436;50.860;4.334;2022-11-14T11:16:26;9.30;99.90
22540;DHT22;11436;50.860;4.334;2022-11-14T11:18:52;9.20;99.90
22540;DHT22;11436;50.860;4.334;2022-11-14T11:21:21;8.90;99.90
22540;DHT22;11436;50.860;4.334;2022-11-14T11:23:55;8.60;99.90
22540;DHT22;11436;50.860;4.334;2022-11-14T11:26:26;8.50;99.90
22540;DHT22;11436;50.860;4.334;2022-11-14T11:31:51;8.50;99.90
22540;DHT22;11436;50.860;4.334;2022-11-14T11:34:24;8.60;99.90
22540;DHT22;11436;50.860;4.334;2022-11-14T11:39:33;8.50;99.90
22540;DHT22;11436;50.860;4.334;2022-11-14T11:42:05;8.30;99.90
22540;DHT22;11436;50.860;4.334;2022-11-14T11:44:43;8.40;99.90
22540;DHT22;11436;50.860;4.334;2022-11-14T11:47:14;8.50;99.90
22540;DHT22;11436;50.860;4.334;2022-11-14T11:49:51;8.50;99.90
22540;DHT22;11436;50.860;4.334;2022-11-14T11:52:30;8.30;99.90
22540;DHT22;11436;50.860;4.334;2022-11-14T11:55:16;8.40;99.90
22540;DHT22;11436;50.860;4.334;2022-11-14T11:57:47;8.20;99.90
22540;DHT22;11436;50.860;4.334;2022-11-14T12:00:17;8.20;99.90
22540;DHT22;11436;50.860;4.334;2022-11-14T12:02:46;8.20;99.90
22540;DHT22;11436;50.860;4.334;2022-11-14T12:10:41;7.90;99.90
22540;DHT22;11436;50.860;4.334;2022-11-14T12:22:13;7.80;99.90
22540;DHT22;11436;50.860;4.334;2022-11-14T12:30:19;7.90;99.90
22540;DHT22;11436;50.860;4.334;2022-11-14T12:32:55;8.00;99.90
22540;DHT22;11436;50.860;4.334;2022-11-14T12:35:34;8.20;99.90
22540;DHT22;11436;50.860;4.334;2022-11-14T12:38:03;8.30;99.90
22540;DHT22;11436;50.860;4.334;2022-11-14T12:42:57;8.20;99.90
22540;DHT22;11436;50.860;4.334;2022-11-14T12:50:46;7.80;99.90
22540;DHT22;11436;50.860;4.334;2022-11-14T13:04:39;7.60;99.90
22540;DHT22;11436;50.860;4.334;2022-11-14T13:07:58;7.70;99.90
22540;DHT22;11436;50.860;4.334;2022-11-14T13:10:27;7.50;99.90
22540;DHT22;11436;50.860;4.334;2022-11-14T13:15:50;7.60;99.90
22540;DHT22;11436;50.860;4.334;2022-11-14T13:18:36;7.60;99.90
22540;DHT22;11436;50.860;4.334;2022-11-14T13:21:32;7.70;99.90
22540;DHT22;11436;50.860;4.334;2022-11-14T13:24:17;7.70;99.90
22540;DHT22;11436;50.860;4.334;2022-11-14T13:26:54;7.50;99.90
22540;DHT22;11436;50.860;4.334;2022-11-14T13:32:09;7.70;99.90
22540;DHT22;11436;50.860;4.334;2022-11-14T13:34:58;7.60;99.90
22540;DHT22;11436;50.860;4.334;2022-11-14T13:40:18;7.60;99.90
22540;DHT22;11436;50.860;4.334;2022-11-14T13:46:04;7.60;99.90
22540;DHT22;11436;50.860;4.334;2022-11-14T13:49:10;7.60;99.90
22540;DHT22;11436;50.860;4.334;2022-11-14T13:51:39;7.60;99.90
22540;DHT22;11436;50.860;4.334;2022-11-14T13:54:13;7.70;99.90
22540;DHT22;11436;50.860;4.334;2022-11-14T14:04:56;7.70;99.90
22540;DHT22;11436;50.860;4.334;2022-11-14T14:11:19;7.80;99.90
22540;DHT22;11436;50.860;4.334;2022-11-14T14:13:52;7.80;99.90
22540;DHT22;11436;50.860;4.334;2022-11-14T14:27:53;8.00;99.90
22540;DHT22;11436;50.860;4.334;2022-11-14T14:30:20;8.00;99.90
22540;DHT22;11436;50.860;4.334;2022-11-14T14:33:09;8.00;99.90
22540;DHT22;11436;50.860;4.334;2022-11-14T14:35:36;8.00;99.90
22540;DHT22;11436;50.860;4.334;2022-11-14T14:38:12;8.00;99.90
22540;DHT22;11436;50.860;4.334;2022-11-14T14:40:46;7.90;99.90
22540;DHT22;11436;50.860;4.334;2022-11-14T14:43:38;7.90;99.90
22540;DHT22;11436;50.860;4.334;2022-11-14T14:46:05;7.80;99.90
22540;DHT22;11436;50.860;4.334;2022-11-14T14:48:33;7.80;99.90
22540;DHT22;11436;50.860;4.334;2022-11-14T14:51:00;7.70;99.90
22540;DHT22;11436;50.860;4.334;2022-11-14T14:53:32;7.70;99.90
22540;DHT22;11436;50.860;4.334;2022-11-14T14:56:04;7.70;99.90
22540;DHT22;11436;50.860;4.334;2022-11-14T14:58:32;7.70;99.90
22540;DHT22;11436;50.860;4.334;2022-11-14T15:01:07;7.70;99.90
22540;DHT22;11436;50.860;4.334;2022-11-14T15:03:56;7.80;99.90
22540;DHT22;11436;50.860;4.334;2022-11-14T15:09:20;8.10;99.90
22540;DHT22;11436;50.860;4.334;2022-11-14T15:11:49;8.10;99.90
22540;DHT22;11436;50.860;4.334;2022-11-14T15:14:30;8.20;99.90
22540;DHT22;11436;50.860;4.334;2022-11-14T15:16:57;8.30;99.90
22540;DHT22;11436;50.860;4.334;2022-11-14T15:19:26;8.20;99.90
22540;DHT22;11436;50.860;4.334;2022-11-14T15:22:19;8.10;99.90
22540;DHT22;11436;50.860;4.334;2022-11-14T15:27:47;8.10;99.90
22540;DHT22;11436;50.860;4.334;2022-11-14T15:30:27;8.20;99.90
22540;DHT22;11436;50.860;4.334;2022-11-14T15:33:00;8.30;99.90
22540;DHT22;11436;50.860;4.334;2022-11-14T15:35:33;8.30;99.90
22540;DHT22;11436;50.860;4.334;2022-11-14T15:40:33;8.20;99.90
22540;DHT22;11436;50.860;4.334;2022-11-14T15:42:59;8.20;99.90
22540;DHT22;11436;50.860;4.334;2022-11-14T15:45:28;8.20;99.90
22540;DHT22;11436;50.860;4.334;2022-11-14T15:48:01;8.20;99.90
22540;DHT22;11436;50.860;4.334;2022-11-14T15:50:30;8.30;99.90
22540;DHT22;11436;50.860;4.334;2022-11-14T15:53:04;8.30;99.90
22540;DHT22;11436;50.860;4.334;2022-11-14T15:55:31;8.30;99.90
22540;DHT22;11436;50.860;4.334;2022-11-14T15:57:56;8.30;99.90
22540;DHT22;11436;50.860;4.334;2022-11-14T16:00:22;8.30;99.90
22540;DHT22;11436;50.860;4.334;2022-11-14T16:02:54;8.20;99.90
22540;DHT22;11436;50.860;4.334;2022-11-14T16:05:26;8.00;99.90
22540;DHT22;11436;50.860;4.334;2022-11-14T16:07:52;8.10;99.90
22540;DHT22;11436;50.860;4.334;2022-11-14T16:10:20;8.20;99.90
22540;DHT22;11436;50.860;4.334;2022-11-14T16:12:46;8.20;99.90
22540;DHT22;11436;50.860;4.334;2022-11-14T16:15:12;8.10;99.90
22540;DHT22;11436;50.860;4.334;2022-11-14T16:17:41;8.10;99.90
22540;DHT22;11436;50.860;4.334;2022-11-14T16:20:14;8.20;99.90
22540;DHT22;11436;50.860;4.334;2022-11-14T16:22:42;8.20;99.90
22540;DHT22;11436;50.860;4.334;2022-11-14T16:25:17;8.30;99.90
22540;DHT22;11436;50.860;4.334;2022-11-14T16:27:44;8.30;99.90
22540;DHT22;11436;50.860;4.334;2022-11-14T16:30:11;8.20;99.90
22540;DHT22;11436;50.860;4.334;2022-11-14T16:32:39;8.20;99.90
22540;DHT22;11436;50.860;4.334;2022-11-14T16:35:16;8.20;99.90
22540;DHT22;11436;50.860;4.334;2022-11-14T16:37:42;8.10;99.90
22540;DHT22;11436;50.860;4.334;2022-11-14T16:40:19;8.10;99.90
22540;DHT22;11436;50.860;4.334;2022-11-14T16:42:50;8.00;99.90
22540;DHT22;11436;50.860;4.334;2022-11-14T16:45:18;8.10;99.90
22540;DHT22;11436;50.860;4.334;2022-11-14T16:47:45;8.10;99.90
22540;DHT22;11436;50.860;4.334;2022-11-14T16:50:11;8.10;99.90
22540;DHT22;11436;50.860;4.334;2022-11-14T16:52:37;8.10;99.90
22540;DHT22;11436;50.860;4.334;2022-11-14T16:55:04;8.10;99.90
22540;DHT22;11436;50.860;4.334;2022-11-14T16:57:30;8.10;99.90
22540;DHT22;11436;50.860;4.334;2022-11-14T16:59:56;8.00;99.90
22540;DHT22;11436;50.860;4.334;2022-11-14T17:02:23;8.00;99.90
22540;DHT22;11436;50.860;4.334;2022-11-14T17:04:49;8.00;99.90
22540;DHT22;11436;50.860;4.334;2022-11-14T17:07:15;8.00;99.90
22540;DHT22;11436;50.860;4.334;2022-11-14T17:09:41;8.00;99.90
22540;DHT22;11436;50.860;4.334;2022-11-14T17:12:08;8.10;99.90
22540;DHT22;11436;50.860;4.334;2022-11-14T17:14:33;8.00;99.90
22540;DHT22;11436;50.860;4.334;2022-11-14T17:16:59;8.10;99.90
22540;DHT22;11436;50.860;4.334;2022-11-14T17:19:25;8.10;99.90
22540;DHT22;11436;50.860;4.334;2022-11-14T17:21:51;8.00;99.90
22540;DHT22;11436;50.860;4.334;2022-11-14T17:24:17;8.00;99.90
22540;DHT22;11436;50.860;4.334;2022-11-14T17:26:42;8.10;99.90
22540;DHT22;11436;50.860;4.334;2022-11-14T17:29:08;8.20;99.90
22540;DHT22;11436;50.860;4.334;2022-11-14T17:31:34;8.30;99.90
22540;DHT22;11436;50.860;4.334;2022-11-14T17:34:00;8.30;99.90
22540;DHT22;11436;50.860;4.334;2022-11-14T17:36:28;8.40;99.90
22540;DHT22;11436;50.860;4.334;2022-11-14T17:38:55;8.40;99.90
22540;DHT22;11436;50.860;4.334;2022-11-14T17:41:22;8.40;99.90
22540;DHT22;11436;50.860;4.334;2022-11-14T17:43:51;8.40;99.90
22540;DHT22;11436;50.860;4.334;2022-11-14T17:46:18;8.40;99.90
22540;DHT22;11436;50.860;4.334;2022-11-14T17:48:45;8.30;99.90
22540;DHT22;11436;50.860;4.334;2022-11-14T17:51:13;8.40;99.90
22540;DHT22;11436;50.860;4.334;2022-11-14T17:53:39;8.30;99.90
22540;DHT22;11436;50.860;4.334;2022-11-14T17:56:05;8.30;99.90